createdAt,value
2023-03-18T00:02:10.152Z,13.00
2023-03-18T00:07:12.394Z,10.63
2023-03-18T00:12:14.597Z,8.82
2023-03-18T00:17:16.704Z,11.55
2023-03-18T00:22:19.639Z,11.38
2023-03-18T00:27:21.620Z,12.40
2023-03-18T00:32:26.022Z,10.88
2023-03-18T00:37:31.001Z,14.18
2023-03-18T00:42:47.732Z,13.43
2023-03-18T00:47:50.471Z,9.07
2023-03-18T00:57:54.387Z,9.68
2023-03-18T01:02:56.683Z,11.05
2023-03-18T01:07:59.753Z,11.45
2023-03-18T01:13:01.813Z,10.48
2023-03-18T01:18:04.238Z,7.45
2023-03-18T01:23:08.384Z,11.25
2023-03-18T01:28:11.648Z,8.13
2023-03-18T01:33:13.688Z,11.43
2023-03-18T01:38:15.692Z,6.60
2023-03-18T01:43:24.257Z,9.57
2023-03-18T01:48:30.592Z,13.32
2023-03-18T01:53:39.337Z,16.02
2023-03-18T01:58:45.642Z,15.60
2023-03-18T02:03:50.663Z,11.75
2023-03-18T02:08:52.808Z,13.05
2023-03-18T02:13:55.264Z,11.05
2023-03-18T02:19:07.653Z,15.27
2023-03-18T02:24:13.960Z,13.82
2023-03-18T02:29:18.601Z,12.60
2023-03-18T02:34:25.104Z,24.50
2023-03-18T02:39:27.442Z,14.32
2023-03-18T02:44:29.570Z,14.77
2023-03-18T02:49:32.971Z,12.75
2023-03-18T02:54:34.945Z,11.85
2023-03-18T02:59:36.971Z,8.75
2023-03-18T03:04:39.041Z,11.70
2023-03-18T03:09:42.241Z,11.02
2023-03-18T03:14:44.334Z,16.35
2023-03-18T03:19:46.344Z,11.93
2023-03-18T03:24:49.090Z,9.88
2023-03-18T03:29:51.134Z,10.73
2023-03-18T03:34:53.135Z,5.57
2023-03-18T03:39:55.341Z,15.95
2023-03-18T03:44:57.276Z,12.77
2023-03-18T03:49:59.329Z,10.20
2023-03-18T03:55:01.382Z,8.65
2023-03-18T04:00:07.593Z,11.43
2023-03-18T04:05:11.114Z,10.98
2023-03-18T04:10:16.712Z,7.57
2023-03-18T04:15:21.538Z,10.95
2023-03-18T04:20:23.567Z,13.02
2023-03-18T04:25:25.840Z,12.13
2023-03-18T04:30:28.541Z,8.50
2023-03-18T04:35:30.637Z,12.60
2023-03-18T04:40:33.177Z,8.07
2023-03-18T04:45:35.296Z,11.98
2023-03-18T04:50:37.386Z,9.80
2023-03-18T04:55:40.398Z,9.30
2023-03-18T05:00:43.201Z,11.13
2023-03-18T05:05:45.510Z,8.95
2023-03-18T05:10:47.819Z,12.82
2023-03-18T05:15:49.969Z,9.15
2023-03-18T05:20:52.895Z,13.52
2023-03-18T05:30:57.130Z,11.00
2023-03-18T05:35:59.618Z,13.02
2023-03-18T05:41:01.832Z,10.27
2023-03-18T05:46:05.536Z,11.85
2023-03-18T05:51:07.769Z,7.72
2023-03-18T05:56:10.802Z,11.05
2023-03-18T06:01:14.346Z,9.88
2023-03-18T06:06:16.732Z,8.23
2023-03-18T06:11:19.148Z,13.48
2023-03-18T06:16:22.381Z,18.20
2023-03-18T06:21:24.923Z,10.88
2023-03-18T06:26:27.227Z,8.38
2023-03-18T06:31:29.297Z,5.82
2023-03-18T06:36:32.083Z,8.25
2023-03-18T06:41:34.130Z,9.07
2023-03-18T06:46:36.258Z,3.63
2023-03-18T06:51:38.647Z,6.72
2023-03-18T06:56:42.100Z,7.40
2023-03-18T07:01:45.242Z,8.27
2023-03-18T07:06:47.337Z,12.80
2023-03-18T07:11:49.385Z,11.85
2023-03-18T07:16:52.086Z,10.85
2023-03-18T07:21:54.259Z,15.00
2023-03-18T07:26:57.251Z,10.27
2023-03-18T07:31:59.316Z,9.75
2023-03-18T07:37:01.440Z,12.38
2023-03-18T07:42:03.698Z,13.02
2023-03-18T07:47:05.900Z,8.73
2023-03-18T07:52:09.087Z,11.23
2023-03-18T07:57:11.347Z,9.70
2023-03-18T08:02:16.206Z,8.52
2023-03-18T08:07:18.982Z,13.90
2023-03-18T08:12:22.501Z,8.45
2023-03-18T08:17:24.493Z,6.93
2023-03-18T08:22:26.940Z,9.18
2023-03-18T08:27:29.077Z,10.55
2023-03-18T08:37:33.986Z,8.43
2023-03-18T08:42:36.385Z,12.57
2023-03-18T08:47:38.785Z,6.90
2023-03-18T08:52:41.621Z,8.93
2023-03-18T08:57:43.914Z,12.32
2023-03-18T09:02:46.512Z,7.80
2023-03-18T09:07:48.702Z,11.13
2023-03-18T09:12:51.056Z,11.15
2023-03-18T09:18:09.787Z,11.98
2023-03-18T09:23:14.299Z,10.73
2023-03-18T09:28:17.203Z,7.05
2023-03-18T09:33:19.906Z,11.35
2023-03-18T09:38:22.748Z,8.30
2023-03-18T09:44:02.310Z,7.50
2023-03-18T09:49:22.600Z,13.73
2023-03-18T09:54:47.609Z,12.82
2023-03-18T09:59:55.740Z,7.55
2023-03-18T10:05:03.890Z,10.13
2023-03-18T10:10:20.687Z,11.45
2023-03-18T10:15:35.296Z,5.32
2023-03-18T10:21:14.728Z,11.48
2023-03-18T10:26:21.034Z,13.38
2023-03-18T10:31:49.453Z,11.93
2023-03-18T10:37:00.428Z,8.05
2023-03-18T10:42:19.829Z,9.20
2023-03-18T10:47:30.897Z,9.05
2023-03-18T10:52:45.945Z,10.95
2023-03-18T10:57:48.198Z,9.18
2023-03-18T11:02:50.519Z,12.50
2023-03-18T11:08:47.583Z,7.93
2023-03-18T11:13:56.235Z,13.27
2023-03-18T11:18:59.145Z,6.97
2023-03-18T11:24:11.106Z,11.68
2023-03-18T11:29:18.855Z,7.63
2023-03-18T11:39:25.588Z,7.20
2023-03-18T11:44:34.675Z,9.35
2023-03-18T11:49:37.579Z,8.05
2023-03-18T11:54:46.301Z,12.65
2023-03-18T12:00:20.180Z,6.50
2023-03-18T12:05:31.742Z,8.55
2023-03-18T12:10:41.983Z,7.03
2023-03-18T12:16:01.877Z,8.35
2023-03-18T12:21:24.693Z,7.85
2023-03-18T12:26:34.899Z,9.75
2023-03-18T12:32:03.285Z,8.73
2023-03-18T12:37:37.870Z,8.10
2023-03-18T12:42:55.682Z,8.73
2023-03-18T12:48:08.308Z,7.30
2023-03-18T12:53:29.450Z,6.50
2023-03-18T12:58:38.196Z,8.98
2023-03-18T13:03:47.906Z,8.60
2023-03-18T13:09:27.684Z,6.13
2023-03-18T13:14:42.912Z,10.35
2023-03-18T13:19:46.401Z,8.40
2023-03-18T13:25:00.594Z,6.60
2023-03-18T13:30:06.636Z,7.53
2023-03-18T13:35:35.444Z,8.82
2023-03-18T13:40:52.780Z,5.60
2023-03-18T13:45:59.180Z,9.48
2023-03-18T13:51:40.976Z,13.88
2023-03-18T13:56:43.476Z,12.15
2023-03-18T14:01:51.320Z,8.23
2023-03-18T14:06:57.112Z,9.73
2023-03-18T14:12:20.209Z,8.45
2023-03-18T14:17:26.783Z,9.07
2023-03-18T14:22:36.907Z,10.02
2023-03-18T14:27:55.379Z,6.85
2023-03-18T14:33:18.481Z,9.23
2023-03-18T14:38:41.953Z,7.93
2023-03-18T14:44:08.222Z,9.02
2023-03-18T14:49:32.869Z,8.93
2023-03-18T14:54:43.159Z,9.02
2023-03-18T14:59:45.311Z,10.85
2023-03-18T15:04:56.991Z,11.73
2023-03-18T15:10:17.967Z,11.02
2023-03-18T15:15:22.305Z,7.40
2023-03-18T15:20:26.401Z,7.53
2023-03-18T15:25:29.143Z,8.57
2023-03-18T15:30:34.073Z,10.02
2023-03-18T15:35:38.200Z,8.63
2023-03-18T15:41:21.972Z,12.18
2023-03-18T15:51:32.386Z,8.13
2023-03-18T15:56:40.201Z,10.68
2023-03-18T16:06:45.890Z,12.20
2023-03-18T16:12:07.717Z,11.98
2023-03-18T16:17:13.402Z,12.68
2023-03-18T16:22:15.658Z,12.13
2023-03-18T16:27:37.762Z,13.40
2023-03-18T16:32:39.968Z,14.80
2023-03-18T16:37:44.690Z,17.30
2023-03-18T16:42:50.824Z,18.38
2023-03-18T16:47:58.097Z,17.70
2023-03-18T16:53:01.072Z,15.57
2023-03-18T16:58:03.169Z,17.65
2023-03-18T17:03:09.153Z,22.02
2023-03-18T17:08:11.764Z,16.23
2023-03-18T17:13:27.889Z,17.25
2023-03-18T17:18:34.229Z,18.70
2023-03-18T17:23:37.119Z,23.98
2023-03-18T17:28:46.217Z,22.05
2023-03-18T17:33:49.207Z,32.10
2023-03-18T17:38:57.304Z,30.10
2023-03-18T17:44:00.296Z,33.25
2023-03-18T17:49:04.981Z,35.45
2023-03-18T18:07:10.973Z,39.88
2023-03-18T18:13:32.203Z,47.28
2023-03-18T18:25:35.184Z,40.05
2023-03-18T18:42:56.087Z,34.35
2023-03-18T18:48:07.796Z,50.42
2023-03-18T18:54:14.323Z,39.55
2023-03-18T19:05:17.475Z,56.40
2023-03-18T19:10:35.667Z,37.40
2023-03-18T19:16:01.864Z,43.47
2023-03-18T19:21:04.868Z,41.50
2023-03-18T19:26:08.230Z,39.13
2023-03-18T19:31:13.366Z,37.90
2023-03-18T19:36:44.823Z,37.13
2023-03-18T19:41:49.397Z,42.92
2023-03-18T19:47:05.740Z,34.22
2023-03-18T19:52:27.590Z,39.80
2023-03-18T19:57:36.616Z,39.00
2023-03-18T20:03:02.060Z,40.45
2023-03-18T20:08:09.745Z,42.83
2023-03-18T20:13:28.489Z,42.05
2023-03-18T20:18:34.747Z,44.47
2023-03-18T20:23:45.465Z,39.53
2023-03-18T20:29:02.608Z,41.83
2023-03-18T20:34:10.559Z,44.78
2023-03-18T20:51:49.411Z,44.38
2023-03-18T20:56:54.373Z,45.10
2023-03-18T21:02:52.560Z,53.30
2023-03-18T21:08:08.096Z,43.97
2023-03-18T21:13:26.610Z,38.45
2023-03-18T21:18:34.652Z,49.83
2023-03-18T21:23:37.308Z,51.85
2023-03-18T21:28:41.253Z,36.67
2023-03-18T21:34:04.403Z,49.75
2023-03-18T21:39:08.116Z,38.95
2023-03-18T21:44:22.949Z,63.75
2023-03-18T21:49:25.717Z,53.65
2023-03-18T21:54:28.478Z,40.72
2023-03-18T21:59:30.806Z,38.33
2023-03-18T22:04:33.056Z,39.65
2023-03-18T22:09:35.037Z,36.15
2023-03-18T22:14:39.427Z,33.40
2023-03-18T22:19:41.947Z,35.88
2023-03-18T22:24:45.013Z,39.53
2023-03-18T22:29:48.160Z,40.75
2023-03-18T22:34:51.529Z,37.13
2023-03-18T22:39:54.573Z,34.58
2023-03-18T22:44:57.278Z,31.00
2023-03-18T22:49:59.495Z,35.58
2023-03-18T22:55:04.382Z,35.53
2023-03-18T23:00:32.016Z,39.17
2023-03-18T23:05:34.719Z,35.15
2023-03-18T23:10:38.170Z,28.33
2023-03-18T23:15:40.207Z,30.98
2023-03-18T23:20:47.654Z,30.13
2023-03-18T23:25:51.114Z,24.30
2023-03-18T23:30:53.952Z,27.33
2023-03-18T23:35:56.070Z,30.48
2023-03-18T23:40:58.137Z,30.05
2023-03-18T23:46:00.191Z,32.58
2023-03-18T23:51:02.484Z,32.78
2023-03-18T23:56:04.537Z,37.10
